View Sortable Currents For Network
ASOSAWOSCoCoRaHSCOOPDCPISUSM
SchoolNetOtherSCANMy FavoritesBy StateRWIS
RWIS SurfaceRWIS TrafficRWIS SoilBy NWS WFO
Select Network:
Include METARS:
Sort Order: Format:

Times shown are for timezone: America/New_York. The local day summary is based on that timezone.
Table sorted by: (Observation Time)     Click on a column to sort it. Click on site ID for more information. You can download data from this network here and you can view daily summaries on this network.
ADD: ID Station Ob Time Present Wx Temps °F   Wind [knots] Precip Clouds
Air Hi Lo Dewp Feels RH % Alti Vsby Speed Drct Gust @ Time 1 Hour Today Level 1 Level 2 Level 3 Level 4
APGPHILLIPS AAF/ABERDN05:56 PM828263 46 82 28 30.12 7 7SE10 @ 08:54 AM0 CLR
ADWANDREWS AFB05:56 PM828260 44 82 26 30.12 10 3SE8 @ 07:56 AM0 CLR
GAIGaithersburg05:56 PM828355 51 82 34 30.14 10 5WNW7 @ 12:40 PM0 CLR
DMWWestminster05:55 PM848457 46 84 27 30.14 10 0N7 @ 10:55 AM0 CLR
ESNEaston05:55 PM828261 54 82 37 30.16 10 5NW9 @ 09:50 AM0 CLR
DMHBALTIMORE INNER HARBOR05:54 PM828867 47 82 29 30.12 0N0 0
NAKAnnapolis05:54 PM828380 48 82 31 30.12 10 5SSE11 @ 03:54 PM0 CLR
BWIBALTIMORE/WASH INTL05:54 PM828558 49 82 32 30.1 10 6SSE15 @ 09:52 AM0 0 CLR
SBYSALISBURY REGIONAL05:54 PM798458 54 79 42 30.13 10 10ESE20 @ 12:50 PM0 0 CLR
HGRHAGERSTOWN REGIONAL05:53 PM838457 47 83 28 30.13 10 4WNW8 @ 12:15 PM0 0 CLR
OXBOCEAN CITY MUNI05:53 PM707861 58 70 65 30.15 10 5N14 @ 09:35 AM0 CLR
NUISt Inigoes05:53 PM808261 60 81 51 30.12 7 4SW16 @ 09:53 AM0 CLR
NHKPATUXENT RIVER NAS05:52 PM848465 49 84 30 30.13 10 3WNW10 @ 06:52 AM0 FEW 6000
FDKFREDERICK MUNI APT05:47 PM848454 39 84 20 30.15 10 0N9 @ 09:47 AM0 CLR
MTNBALTIMORE/MARTIN05:45 PM818261 54 81 39 30.13 10 6SE10 @ 09:45 AM0 CLR
2G4Oakland05:45 PM727254 43 72 35 30.23 10 4E9 @ 12:05 PM0 CLR
2W6Leonardtown05:37 PM797959 43 79 28 30.15 10 3N6 @ 11:57 AM0 CLR
CGSCollege Park05:37 PM838456 44 83 25 30.12 10 4E9 @ 10:17 AM0 CLR
CBECumberland05:36 PM828252 41 82 23 30.18 10 4S7 @ 03:16 PM0 CLR
FMEFort Meade05:36 PM818254 45 81 28 30.14 10 0N7 @ 11:15 AM0 CLR
W29Stevensville05:35 PM828264 46 82 28 30.13 7 4SE10 @ 09:55 AM0 CLR
CGECambridge05:35 PM818159 55 81 42 30.13 9 6NNW8 @ 08:35 AM0 CLR
RSPCamp David04:54 PM767756 47 76 36 30.19 10 5SW8 @ 12:54 PM0 0.03 CLR